Time;durP1;ratioP1;P1;durP2;ratioP2;P2;SDS_P1;SDS_P2;PMS_P1;PMS_P2;Temp;Humidity;BMP_temperature;BMP_pressure;BME280_temperature;BME280_humidity;BME280_pressure;Samples;Min_cycle;Max_cycle;Signal;HPM_P1;HPM_P2
2022/01/13 00:00:19;;;;;;;0.00;0.00;;;5.20;99.90;;;;;;5040727;28;20067;-62
2022/01/13 00:02:46;;;;;;;0.00;0.00;;;5.10;99.90;;;;;;5040579;28;20045;-62
2022/01/13 00:05:11;;;;;;;0.00;0.00;;;5.20;99.90;;;;;;5041268;28;20048;-62
2022/01/13 00:07:37;;;;;;;0.00;0.00;;;5.20;99.90;;;;;;5021243;28;20053;-62
2022/01/13 00:10:05;;;;;;;0.08;0.08;;;5.20;99.90;;;;;;5021981;28;20053;-63
2022/01/13 00:12:36;;;;;;;0.00;0.00;;;5.20;99.90;;;;;;5023330;28;20049;-62
2022/01/13 00:23:39;;;;;;;0.00;0.00;;;5.20;99.90;;;;;;5039739;28;20056;-62
2022/01/13 00:25:37;;;;;;;0.00;0.00;;;5.20;99.90;;;;;;5039784;28;20076;-62
2022/01/13 00:28:12;;;;;;;0.00;0.00;;;5.20;99.90;;;;;;5042625;28;20532;-63
2022/01/13 00:30:38;;;;;;;0.00;0.00;;;5.20;99.90;;;;;;5047493;28;20106;-62
2022/01/13 00:33:04;;;;;;;0.00;0.00;;;5.10;99.90;;;;;;5021782;28;20041;-62
2022/01/13 00:35:30;;;;;;;0.00;0.00;;;5.10;99.90;;;;;;5040704;28;20052;-62
2022/01/13 00:37:55;;;;;;;0.00;0.00;;;5.10;99.90;;;;;;5039556;28;20045;-62
2022/01/13 00:40:21;;;;;;;0.00;0.00;;;5.10;99.90;;;;;;5039132;28;20697;-62
2022/01/13 00:42:47;;;;;;;0.00;0.00;;;5.60;99.90;;;;;;5040234;28;20586;-62
2022/01/13 00:45:14;;;;;;;0.00;0.00;;;5.10;99.90;;;;;;5040235;28;20051;-62
2022/01/13 00:47:41;;;;;;;0.10;0.10;;;5.10;99.90;;;;;;5039562;28;20053;-62
2022/01/13 00:50:07;;;;;;;0.00;0.00;;;5.00;99.90;;;;;;5039723;28;20033;-62
2022/01/13 00:52:33;;;;;;;1.75;0.55;;;5.10;99.90;;;;;;5022141;28;20051;-63
2022/01/13 00:55:03;;;;;;;0.10;0.10;;;5.00;99.90;;;;;;5038940;28;20041;-62
2022/01/13 00:57:31;;;;;;;0.00;0.00;;;5.00;99.90;;;;;;5040441;28;20044;-62
2022/01/13 00:59:59;;;;;;;0.00;0.00;;;5.00;99.90;;;;;;5039714;28;20471;-62
2022/01/13 01:02:25;;;;;;;0.00;0.00;;;5.00;99.90;;;;;;5021951;28;20211;-62
2022/01/13 01:04:50;;;;;;;0.00;0.00;;;5.00;99.90;;;;;;5039170;28;20037;-62
2022/01/13 01:07:16;;;;;;;0.00;0.00;;;5.00;99.90;;;;;;5021785;28;20049;-62
2022/01/13 01:09:48;;;;;;;0.38;0.38;;;5.00;99.90;;;;;;5038599;28;20729;-63
2022/01/13 01:12:15;;;;;;;0.00;0.00;;;5.00;99.90;;;;;;5038776;28;20049;-62
2022/01/13 01:14:47;;;;;;;0.00;0.00;;;5.00;99.90;;;;;;5039270;28;20053;-63
2022/01/13 01:17:15;;;;;;;0.00;0.00;;;5.00;99.90;;;;;;5039819;28;20072;-63
2022/01/13 01:19:48;;;;;;;0.00;0.00;;;5.00;99.90;;;;;;5039197;28;20061;-63
2022/01/13 01:27:39;;;;;;;0.08;0.08;;;5.00;99.90;;;;;;4952976;28;20086;-63
2022/01/13 01:30:12;;;;;;;0.00;0.00;;;5.00;99.90;;;;;;5048062;28;20049;-63
2022/01/13 01:32:40;;;;;;;0.00;0.00;;;5.00;99.90;;;;;;5039393;28;20060;-63
2022/01/13 01:35:13;;;;;;;0.00;0.00;;;5.00;99.90;;;;;;5038768;28;20048;-63
2022/01/13 01:37:39;;;;;;;0.00;0.00;;;5.00;99.90;;;;;;5021568;28;20049;-63
2022/01/13 01:40:06;;;;;;;0.00;0.00;;;5.00;99.90;;;;;;5038479;28;20061;-63
2022/01/13 01:42:32;;;;;;;0.00;0.00;;;5.00;99.90;;;;;;5021221;28;20494;-62
2022/01/13 01:44:59;;;;;;;0.00;0.00;;;5.00;99.90;;;;;;5039160;28;20049;-62
2022/01/13 01:47:28;;;;;;;0.00;0.00;;;4.90;99.90;;;;;;5039331;28;20049;-62
2022/01/13 01:49:58;;;;;;;0.00;0.00;;;5.00;99.90;;;;;;5021674;28;20094;-62
2022/01/13 01:52:24;;;;;;;0.17;0.17;;;5.00;99.90;;;;;;5039507;28;20049;-63
2022/01/13 01:54:50;;;;;;;0.00;0.00;;;5.00;99.90;;;;;;5038002;28;20049;-62
2022/01/13 01:57:18;;;;;;;0.00;0.00;;;5.10;99.90;;;;;;5038886;28;20045;-62
2022/01/13 01:59:44;;;;;;;0.38;0.28;;;5.00;99.90;;;;;;5038769;28;20060;-62
2022/01/13 02:02:15;;;;;;;0.00;0.00;;;5.10;99.90;;;;;;5039122;28;20045;-63
2022/01/13 02:04:42;;;;;;;0.00;0.00;;;5.10;99.90;;;;;;5038867;28;20041;-63
2022/01/13 02:07:08;;;;;;;0.25;0.25;;;5.10;99.90;;;;;;5036848;22;20054;-62
2022/01/13 02:09:36;;;;;;;0.00;0.00;;;5.00;99.90;;;;;;5036634;28;20041;-62
2022/01/13 02:12:07;;;;;;;0.22;0.22;;;5.00;99.90;;;;;;5021638;28;20060;-62
2022/01/13 02:14:36;;;;;;;0.30;0.22;;;4.90;99.90;;;;;;5039107;28;20049;-63
2022/01/13 02:17:10;;;;;;;0.00;0.00;;;4.90;99.90;;;;;;5038755;28;20048;-62
2022/01/13 02:19:38;;;;;;;0.00;0.00;;;4.90;99.90;;;;;;5039330;28;20049;-62
2022/01/13 02:22:05;;;;;;;0.00;0.00;;;4.80;99.90;;;;;;5039083;28;20147;-61
2022/01/13 02:24:31;;;;;;;0.90;0.85;;;4.80;99.90;;;;;;5037804;28;20457;-61
2022/01/13 02:26:57;;;;;;;0.00;0.00;;;4.80;99.90;;;;;;5038807;28;20128;-61
2022/01/13 02:29:23;;;;;;;0.10;0.10;;;4.80;99.90;;;;;;5029966;28;20351;-62
2022/01/13 02:31:49;;;;;;;0.10;0.10;;;4.80;99.90;;;;;;5004225;28;20050;-61
2022/01/13 02:34:14;;;;;;;0.00;0.00;;;4.80;99.90;;;;;;5022159;28;20056;-61
2022/01/13 02:36:42;;;;;;;0.00;0.00;;;4.80;99.90;;;;;;5022892;28;20049;-62
2022/01/13 02:39:08;;;;;;;0.00;0.00;;;4.80;99.90;;;;;;5021971;28;20048;-62
2022/01/13 02:41:34;;;;;;;0.10;0.10;;;5.00;99.90;;;;;;5022699;28;20085;-61
2022/01/13 02:44:00;;;;;;;0.00;0.00;;;4.80;99.90;;;;;;5022512;28;20119;-61
2022/01/13 02:46:54;;;;;;;0.65;0.65;;;4.70;99.90;;;;;;5022681;28;20052;-61
2022/01/13 02:49:18;;;;;;;0.00;0.00;;;4.70;99.90;;;;;;5021741;28;20045;-61
2022/01/13 02:51:46;;;;;;;0.00;0.00;;;4.80;99.90;;;;;;5021330;28;20411;-61
2022/01/13 02:54:12;;;;;;;0.00;0.00;;;4.80;99.90;;;;;;5021658;28;20084;-61
2022/01/13 02:56:39;;;;;;;0.10;0.10;;;4.70;99.90;;;;;;5022501;28;20120;-61
2022/01/13 02:59:06;;;;;;;0.00;0.00;;;4.80;99.90;;;;;;5021826;28;20045;-61
2022/01/13 03:01:35;;;;;;;0.00;0.00;;;4.80;99.90;;;;;;5022793;28;20148;-61
2022/01/13 03:04:05;;;;;;;0.00;0.00;;;4.80;99.90;;;;;;5022090;28;20136;-61
2022/01/13 03:06:34;;;;;;;0.00;0.00;;;4.80;99.90;;;;;;5020449;28;20518;-61
2022/01/13 03:09:03;;;;;;;0.00;0.00;;;4.80;99.90;;;;;;5021768;28;20042;-61
2022/01/13 03:11:37;;;;;;;0.00;0.00;;;4.80;99.90;;;;;;5022538;28;20046;-61
2022/01/13 03:14:04;;;;;;;0.40;0.40;;;4.80;99.90;;;;;;5020973;28;20049;-62
2022/01/13 03:16:30;;;;;;;0.45;0.45;;;4.80;99.90;;;;;;5022066;28;20037;-62
2022/01/13 03:18:56;;;;;;;0.00;0.00;;;4.80;99.90;;;;;;5022038;28;20049;-61
2022/01/13 03:21:22;;;;;;;0.05;0.03;;;4.80;99.90;;;;;;5020197;28;20049;-62
2022/01/13 03:23:49;;;;;;;0.00;0.00;;;4.80;99.90;;;;;;5020571;28;20045;-61
2022/01/13 03:26:15;;;;;;;0.05;0.05;;;4.80;99.90;;;;;;5022168;28;20042;-61
2022/01/13 03:29:14;;;;;;;0.00;0.00;;;4.90;99.90;;;;;;5012029;28;20472;-62
2022/01/13 03:31:40;;;;;;;0.00;0.00;;;4.90;99.90;;;;;;5021813;28;20176;-61
2022/01/13 03:34:06;;;;;;;0.00;0.00;;;4.90;99.90;;;;;;5022071;28;20072;-61
2022/01/13 03:36:33;;;;;;;0.00;0.00;;;4.90;99.90;;;;;;5021816;28;20104;-61
2022/01/13 03:38:59;;;;;;;0.00;0.00;;;4.90;99.90;;;;;;5002549;28;20053;-61
2022/01/13 03:41:24;;;;;;;0.00;0.00;;;6.10;99.90;;;;;;5020693;28;20037;-61
2022/01/13 03:43:52;;;;;;;0.00;0.00;;;4.90;99.90;;;;;;5021242;28;20041;-61
2022/01/13 03:46:18;;;;;;;3.72;1.10;;;4.90;99.90;;;;;;5021433;28;20045;-64
2022/01/13 03:48:44;;;;;;;0.10;0.10;;;4.90;99.90;;;;;;5002745;28;20527;-62
2022/01/13 03:51:09;;;;;;;0.00;0.00;;;4.90;99.90;;;;;;5021607;28;20056;-62
2022/01/13 03:53:38;;;;;;;0.20;0.20;;;4.90;99.90;;;;;;5003107;28;20060;-63
2022/01/13 03:56:25;;;;;;;0.10;0.10;;;4.90;99.90;;;;;;5020195;28;20064;-62
2022/01/13 03:59:11;;;;;;;0.00;0.00;;;4.90;99.90;;;;;;5021272;28;20446;-62
2022/01/13 04:01:42;;;;;;;0.00;0.00;;;4.90;99.90;;;;;;5020395;28;20042;-62
2022/01/13 04:04:08;;;;;;;0.00;0.00;;;4.90;99.90;;;;;;5021165;28;20124;-62
2022/01/13 04:06:33;;;;;;;0.00;0.00;;;4.90;99.90;;;;;;5021150;28;20133;-63
2022/01/13 04:08:59;;;;;;;0.00;0.00;;;4.90;99.90;;;;;;5020173;28;20053;-63
2022/01/13 04:11:32;;;;;;;0.00;0.00;;;4.80;99.90;;;;;;5020757;28;20120;-62
2022/01/13 04:14:01;;;;;;;0.00;0.00;;;4.80;99.90;;;;;;5003310;28;20053;-62
2022/01/13 04:16:31;;;;;;;0.00;0.00;;;5.20;99.90;;;;;;5020743;28;20053;-62
2022/01/13 04:19:04;;;;;;;0.00;0.00;;;4.90;99.90;;;;;;5020409;28;20053;-62
2022/01/13 04:21:33;;;;;;;0.05;0.05;;;4.80;99.90;;;;;;5021076;28;20083;-62
2022/01/13 04:23:59;;;;;;;0.10;0.10;;;4.80;99.90;;;;;;5020494;28;20049;-62
2022/01/13 04:26:30;;;;;;;0.15;0.15;;;4.80;99.90;;;;;;5020177;28;20106;-62
2022/01/13 04:29:30;;;;;;;0.00;0.00;;;4.70;99.90;;;;;;5031267;28;20048;-62
2022/01/13 04:31:49;;;;;;;0.00;0.00;;;4.70;99.90;;;;;;5019468;28;20079;-62
2022/01/13 04:34:15;;;;;;;0.00;0.00;;;4.70;99.90;;;;;;5020738;28;20050;-62
2022/01/13 04:36:41;;;;;;;0.00;0.00;;;4.70;99.90;;;;;;5019947;28;20077;-63
2022/01/13 04:39:08;;;;;;;0.00;0.00;;;4.60;99.90;;;;;;5018430;28;20080;-63
2022/01/13 04:41:36;;;;;;;0.00;0.00;;;4.60;99.90;;;;;;5020185;28;20561;-62
2022/01/13 04:44:06;;;;;;;0.10;0.10;;;4.60;99.90;;;;;;5020619;28;20120;-62
2022/01/13 04:46:31;;;;;;;0.00;0.00;;;5.80;99.90;;;;;;5020805;28;20045;-62
2022/01/13 04:48:57;;;;;;;0.00;0.00;;;4.50;99.90;;;;;;5019616;28;20071;-62
2022/01/13 04:51:23;;;;;;;0.00;0.00;;;4.40;99.90;;;;;;5020392;28;20056;-62
2022/01/13 04:53:48;;;;;;;0.13;0.13;;;4.50;99.90;;;;;;5001225;28;20136;-63
2022/01/13 04:56:26;;;;;;;0.00;0.00;;;4.50;99.90;;;;;;5019945;28;20056;-62
2022/01/13 04:58:53;;;;;;;0.00;0.00;;;4.50;99.90;;;;;;5002821;28;20045;-62
2022/01/13 05:01:19;;;;;;;0.00;0.00;;;4.50;99.90;;;;;;5019799;28;20076;-62
2022/01/13 05:03:44;;;;;;;0.00;0.00;;;4.50;99.90;;;;;;5020099;28;20056;-62
2022/01/13 05:06:12;;;;;;;0.00;0.00;;;4.50;99.90;;;;;;5019326;28;20061;-64
2022/01/13 05:08:38;;;;;;;0.00;0.00;;;4.50;99.90;;;;;;5019654;28;20133;-62
2022/01/13 05:11:04;;;;;;;0.00;0.00;;;4.60;99.90;;;;;;5019415;28;20064;-62
2022/01/13 05:13:30;;;;;;;0.00;0.00;;;4.60;99.90;;;;;;5018864;28;20566;-62
2022/01/13 05:15:56;;;;;;;0.05;0.05;;;4.50;99.90;;;;;;5018986;28;20107;-62
2022/01/13 05:18:42;;;;;;;0.00;0.00;;;4.80;99.90;;;;;;5019678;28;20275;-62
2022/01/13 05:21:19;;;;;;;0.00;0.00;;;4.60;99.90;;;;;;5019718;28;20060;-62
2022/01/13 05:23:44;;;;;;;0.00;0.00;;;4.60;99.90;;;;;;5018832;28;20037;-62
2022/01/13 05:26:10;;;;;;;0.00;0.00;;;4.60;99.90;;;;;;5019650;28;20045;-62
2022/01/13 05:28:37;;;;;;;0.00;0.00;;;4.50;99.90;;;;;;5027280;28;20603;-62
2022/01/13 05:31:02;;;;;;;0.00;0.00;;;4.60;99.90;;;;;;5022634;28;20053;-63
2022/01/13 05:33:28;;;;;;;0.00;0.00;;;4.50;99.90;;;;;;5019982;28;20812;-62
2022/01/13 05:35:54;;;;;;;0.00;0.00;;;4.50;99.90;;;;;;5019654;28;20053;-62
2022/01/13 05:38:19;;;;;;;0.00;0.00;;;4.50;99.90;;;;;;5018837;28;20049;-62
2022/01/13 05:40:45;;;;;;;0.00;0.00;;;4.50;99.90;;;;;;5018740;28;20180;-62
2022/01/13 05:43:11;;;;;;;0.00;0.00;;;4.50;99.90;;;;;;5019781;28;20034;-63
2022/01/13 05:45:38;;;;;;;0.00;0.00;;;4.50;99.90;;;;;;5019802;28;20071;-62
2022/01/13 05:48:04;;;;;;;0.00;0.00;;;4.40;99.90;;;;;;5019082;28;20041;-63
2022/01/13 05:50:31;;;;;;;0.00;0.00;;;4.40;99.90;;;;;;5001678;28;20064;-62
2022/01/13 05:52:57;;;;;;;0.10;0.10;;;4.50;99.90;;;;;;5019595;28;20069;-62
2022/01/13 05:55:23;;;;;;;0.00;0.00;;;4.40;99.90;;;;;;5017511;28;20103;-62
2022/01/13 05:57:49;;;;;;;0.20;0.20;;;4.40;99.90;;;;;;5018868;28;20040;-62
2022/01/13 06:00:18;;;;;;;0.00;0.00;;;4.40;99.90;;;;;;5019268;28;20064;-62
2022/01/13 06:02:44;;;;;;;0.00;0.00;;;4.40;99.90;;;;;;5019524;28;20399;-62
2022/01/13 06:05:11;;;;;;;0.00;0.00;;;4.40;99.90;;;;;;5019898;28;20139;-62
2022/01/13 06:07:38;;;;;;;0.00;0.00;;;4.40;99.90;;;;;;5022241;28;20057;-62
2022/01/13 06:10:07;;;;;;;0.00;0.00;;;4.50;99.90;;;;;;5022620;28;20389;-62
2022/01/13 06:12:34;;;;;;;0.00;0.00;;;4.40;99.90;;;;;;5023558;28;20052;-64
2022/01/13 06:15:09;;;;;;;2.08;0.98;;;4.40;99.90;;;;;;5023186;28;20049;-62
2022/01/13 06:17:37;;;;;;;0.15;0.15;;;4.40;99.90;;;;;;5023350;28;20045;-63
2022/01/13 06:20:06;;;;;;;0.00;0.00;;;4.40;99.90;;;;;;5005122;28;20045;-63
2022/01/13 06:22:32;;;;;;;0.00;0.00;;;4.40;99.90;;;;;;5023366;28;20067;-62
2022/01/13 06:24:57;;;;;;;0.10;0.10;;;4.40;99.90;;;;;;5021515;28;20324;-62
2022/01/13 06:27:23;;;;;;;0.00;0.00;;;4.50;99.90;;;;;;5025347;28;20045;-62
2022/01/13 06:29:50;;;;;;;0.00;0.00;;;4.40;99.90;;;;;;5031644;28;20068;-62
2022/01/13 06:32:17;;;;;;;0.00;0.00;;;4.40;99.90;;;;;;5022608;28;20042;-62
2022/01/13 06:34:42;;;;;;;0.00;0.00;;;4.40;99.90;;;;;;5021791;28;20508;-62
2022/01/13 06:37:08;;;;;;;0.00;0.00;;;4.50;99.90;;;;;;5022811;28;20084;-62
2022/01/13 06:39:33;;;;;;;0.00;0.00;;;4.50;99.90;;;;;;5004049;28;20088;-63
2022/01/13 06:41:59;;;;;;;0.25;0.25;;;4.50;99.90;;;;;;5022994;28;20057;-62
2022/01/13 06:44:25;;;;;;;0.00;0.00;;;4.50;99.90;;;;;;5022054;28;20645;-64
2022/01/13 06:46:50;;;;;;;0.00;0.00;;;4.60;99.90;;;;;;5021022;28;20068;-64
2022/01/13 06:49:16;;;;;;;0.00;0.00;;;4.60;99.90;;;;;;5022586;28;20045;-64
2022/01/13 06:51:42;;;;;;;0.00;0.00;;;4.60;99.90;;;;;;5022675;28;20457;-64
2022/01/13 06:54:07;;;;;;;0.00;0.00;;;4.80;99.90;;;;;;5020837;28;20034;-64
2022/01/13 06:56:33;;;;;;;0.00;0.00;;;4.60;99.90;;;;;;5022580;28;20263;-61
2022/01/13 06:58:59;;;;;;;0.00;0.00;;;4.70;99.90;;;;;;5022621;28;20064;-61
2022/01/13 07:01:25;;;;;;;0.00;0.00;;;4.70;99.90;;;;;;5022039;28;20053;-61
2022/01/13 07:03:51;;;;;;;0.00;0.00;;;4.70;99.90;;;;;;5021666;28;20754;-64
2022/01/13 07:06:16;;;;;;;0.00;0.00;;;4.70;99.90;;;;;;5022313;28;20504;-62
2022/01/13 07:08:42;;;;;;;0.00;0.00;;;4.70;99.90;;;;;;5002930;28;20540;-62
2022/01/13 07:11:08;;;;;;;0.00;0.00;;;4.70;99.90;;;;;;5020233;28;20045;-62
2022/01/13 07:13:34;;;;;;;0.00;0.00;;;4.80;99.90;;;;;;5021946;28;20091;-62
2022/01/13 07:16:01;;;;;;;0.00;0.00;;;4.80;99.90;;;;;;5020191;28;20049;-62
2022/01/13 07:18:31;;;;;;;0.00;0.00;;;4.80;99.90;;;;;;5021591;28;20057;-62
2022/01/13 07:20:57;;;;;;;0.00;0.00;;;4.80;99.90;;;;;;5020968;28;20052;-62
2022/01/13 07:23:23;;;;;;;0.13;0.13;;;4.90;99.90;;;;;;5021338;28;20045;-62
2022/01/13 07:25:49;;;;;;;0.00;0.00;;;4.90;99.90;;;;;;5021548;28;20072;-61
2022/01/13 07:28:15;;;;;;;0.00;0.00;;;6.40;99.90;;;;;;5029327;28;20045;-61
2022/01/13 07:30:41;;;;;;;0.00;0.00;;;4.90;99.90;;;;;;5022614;28;20681;-62
2022/01/13 07:33:06;;;;;;;0.00;0.00;;;4.90;99.90;;;;;;5041880;28;20511;-62
2022/01/13 07:35:32;;;;;;;0.40;0.40;;;4.90;99.90;;;;;;5041912;28;20072;-61
2022/01/13 07:37:58;;;;;;;0.10;0.10;;;5.00;99.90;;;;;;5023124;28;20153;-61
2022/01/13 07:40:24;;;;;;;0.00;0.00;;;5.00;99.90;;;;;;5040607;28;20053;-61
2022/01/13 07:42:50;;;;;;;0.20;0.20;;;5.00;99.90;;;;;;5041303;28;20040;-62
2022/01/13 07:45:18;;;;;;;0.10;0.10;;;5.00;99.90;;;;;;5041000;28;20049;-62
2022/01/13 07:47:44;;;;;;;0.00;0.00;;;5.00;99.90;;;;;;5041441;28;20110;-62
2022/01/13 07:50:12;;;;;;;0.00;0.00;;;5.00;99.90;;;;;;5040287;28;20037;-60
2022/01/13 07:52:38;;;;;;;0.10;0.10;;;5.00;99.90;;;;;;5041489;28;20056;-64
2022/01/13 07:55:04;;;;;;;0.00;0.00;;;5.00;99.90;;;;;;5039902;28;20041;-64
2022/01/13 07:57:30;;;;;;;0.10;0.10;;;5.00;99.90;;;;;;5040850;28;20048;-63
2022/01/13 07:59:56;;;;;;;0.20;0.20;;;5.00;99.90;;;;;;5040377;28;20029;-64
2022/01/13 08:02:22;;;;;;;0.00;0.00;;;5.00;99.90;;;;;;5041199;28;20465;-64
2022/01/13 08:04:49;;;;;;;1.33;1.23;;;5.00;99.90;;;;;;5041009;28;20563;-63
2022/01/13 08:07:15;;;;;;;0.00;0.00;;;5.00;99.90;;;;;;5045772;28;20506;-61
2022/01/13 08:09:41;;;;;;;3.65;1.52;;;5.00;99.90;;;;;;5042367;28;20410;-62
2022/01/13 08:12:07;;;;;;;0.52;0.52;;;5.00;99.90;;;;;;5040813;28;20128;-61
2022/01/13 08:14:33;;;;;;;0.00;0.00;;;5.00;99.90;;;;;;5052635;28;20049;-63
2022/01/13 08:17:00;;;;;;;0.00;0.00;;;5.00;99.90;;;;;;5061008;28;20047;-62
2022/01/13 08:22:11;;;;;;;0.00;0.00;;;5.00;99.90;;;;;;5060520;28;20080;-62
2022/01/13 08:24:37;;;;;;;0.00;0.00;;;5.00;99.90;;;;;;5059363;28;20291;-63
2022/01/13 08:27:03;;;;;;;0.00;0.00;;;5.00;99.90;;;;;;5058764;28;20041;-64
2022/01/13 08:29:28;;;;;;;0.50;0.22;;;5.00;99.90;;;;;;5040746;28;20072;-62
2022/01/13 08:31:54;;;;;;;1.55;0.10;;;5.30;99.90;;;;;;5044342;28;20475;-63
2022/01/13 08:34:19;;;;;;;0.05;0.05;;;4.90;99.90;;;;;;5056376;28;20043;-63
2022/01/13 08:36:45;;;;;;;0.00;0.00;;;4.90;99.90;;;;;;5060196;28;20040;-61
2022/01/13 08:39:12;;;;;;;0.00;0.00;;;4.90;99.90;;;;;;5059233;28;20044;-62
2022/01/13 08:41:39;;;;;;;0.00;0.00;;;4.90;99.90;;;;;;5059785;28;20395;-61
2022/01/13 08:44:05;;;;;;;0.22;0.13;;;4.90;99.90;;;;;;5059281;28;20040;-63
2022/01/13 08:46:30;;;;;;;0.00;0.00;;;4.90;99.90;;;;;;5060462;28;20055;-63
2022/01/13 08:48:56;;;;;;;0.30;0.30;;;4.90;99.90;;;;;;5059826;28;20402;-64
2022/01/13 08:51:22;;;;;;;0.00;0.00;;;4.90;99.90;;;;;;5058976;28;20064;-64
2022/01/13 08:53:48;;;;;;;0.10;0.10;;;5.00;99.90;;;;;;5057366;28;20120;-65
2022/01/13 08:56:14;;;;;;;0.00;0.00;;;5.00;99.90;;;;;;5059542;28;20064;-65
2022/01/13 08:58:41;;;;;;;0.00;0.00;;;5.00;99.90;;;;;;5059721;28;20051;-64
2022/01/13 09:01:07;;;;;;;2.80;0.85;;;5.00;99.90;;;;;;5059713;28;20143;-64
2022/01/13 09:03:36;;;;;;;0.00;0.00;;;5.00;99.90;;;;;;5058818;28;20121;-65
2022/01/13 09:06:03;;;;;;;0.17;0.13;;;5.00;99.90;;;;;;5059204;28;20044;-64
2022/01/13 09:08:29;;;;;;;0.00;0.00;;;4.60;99.90;;;;;;5059027;28;20060;-64
2022/01/13 09:10:55;;;;;;;0.00;0.00;;;5.00;99.90;;;;;;5041414;28;20037;-65
2022/01/13 09:13:21;;;;;;;0.00;0.00;;;5.10;99.90;;;;;;5058443;28;20547;-65
2022/01/13 09:15:52;;;;;;;0.00;0.00;;;5.00;99.90;;;;;;5059045;28;20048;-65
2022/01/13 09:18:30;;;;;;;0.00;0.00;;;5.10;99.90;;;;;;5059752;28;20450;-64
2022/01/13 09:20:56;;;;;;;0.00;0.00;;;5.10;99.90;;;;;;5058946;28;20087;-58
2022/01/13 09:23:22;;;;;;;0.10;0.10;;;5.10;99.90;;;;;;5058530;28;20084;-66
2022/01/13 09:25:47;;;;;;;0.00;0.00;;;5.10;99.90;;;;;;5059370;28;20045;-64
2022/01/13 09:28:13;;;;;;;0.00;0.00;;;5.10;99.90;;;;;;5028964;28;20033;-66
2022/01/13 09:30:39;;;;;;;0.00;0.00;;;5.10;99.90;;;;;;5017585;28;20124;-65
2022/01/13 09:33:07;;;;;;;0.00;0.00;;;5.10;99.90;;;;;;5019019;28;20089;-64
2022/01/13 09:35:33;;;;;;;0.00;0.00;;;5.10;99.90;;;;;;5002001;28;20057;-65
2022/01/13 09:37:59;;;;;;;0.00;0.00;;;5.10;99.90;;;;;;5018848;28;20136;-65
2022/01/13 09:40:25;;;;;;;0.08;0.08;;;5.10;99.90;;;;;;5019521;28;20076;-64
2022/01/13 09:42:52;;;;;;;0.00;0.00;;;5.10;99.90;;;;;;5019592;28;20653;-60
2022/01/13 09:45:18;;;;;;;0.00;0.00;;;5.30;99.90;;;;;;5019461;28;20053;-64
2022/01/13 09:47:46;;;;;;;0.00;0.00;;;5.30;99.90;;;;;;5018980;28;20052;-64
2022/01/13 09:50:16;;;;;;;0.00;0.00;;;5.20;99.90;;;;;;5001517;28;20087;-64
2022/01/13 09:52:43;;;;;;;0.00;0.00;;;5.20;99.90;;;;;;5000520;28;20042;-66
2022/01/13 09:55:11;;;;;;;0.00;0.00;;;5.20;99.90;;;;;;5039086;28;20045;-65
2022/01/13 09:57:42;;;;;;;0.00;0.00;;;5.20;99.90;;;;;;5038357;28;20072;-65
2022/01/13 10:00:12;;;;;;;0.00;0.00;;;5.20;99.90;;;;;;5039131;28;20110;-65
2022/01/13 10:02:38;;;;;;;0.00;0.00;;;5.20;99.90;;;;;;5035161;28;20529;-65
2022/01/13 10:05:04;;;;;;;0.00;0.00;;;5.20;99.90;;;;;;5036846;28;20124;-65
2022/01/13 10:07:32;;;;;;;0.00;0.00;;;5.30;99.90;;;;;;5038861;28;20047;-64
2022/01/13 10:10:00;;;;;;;0.00;0.00;;;5.30;99.90;;;;;;5020790;28;20491;-64
2022/01/13 10:12:32;;;;;;;0.20;0.20;;;5.30;99.90;;;;;;5038088;28;20094;-65
2022/01/13 10:17:25;;;;;;;4.80;1.17;;;5.30;99.90;;;;;;5037799;28;20049;-65
2022/01/13 10:19:55;;;;;;;0.20;0.20;;;5.30;99.90;;;;;;5023145;28;20449;-64
2022/01/13 10:22:30;;;;;;;0.00;0.00;;;5.30;99.90;;;;;;5037155;28;20105;-64
2022/01/13 10:24:58;;;;;;;;;;;5.30;99.90;;;;;;5037299;28;20049;-65
2022/01/13 10:27:36;;;;;;;0.63;0.47;;;5.30;99.90;;;;;;5034809;28;20769;-65
2022/01/13 10:30:16;;;;;;;0.00;0.00;;;5.40;99.90;;;;;;5017661;28;20049;-64
2022/01/13 10:32:44;;;;;;;0.10;0.10;;;5.40;99.90;;;;;;5000412;28;20056;-65
2022/01/13 10:35:16;;;;;;;0.28;0.28;;;5.40;99.90;;;;;;5000791;28;20041;-64
2022/01/13 10:37:57;;;;;;;0.00;0.00;;;5.40;99.90;;;;;;4999310;28;20075;-65
2022/01/13 10:40:27;;;;;;;1.35;1.00;;;5.50;99.90;;;;;;4989762;28;20053;-64
2022/01/13 10:45:23;;;;;;;0.30;0.20;;;5.50;99.90;;;;;;5037678;28;20098;-65
2022/01/13 10:47:59;;;;;;;0.03;0.03;;;5.50;99.90;;;;;;5038440;28;20049;-65
2022/01/13 10:50:29;;;;;;;0.00;0.00;;;5.60;99.90;;;;;;5020335;28;20099;-65
2022/01/13 10:53:02;;;;;;;0.10;0.10;;;6.40;99.90;;;;;;4986916;28;20045;-65
2022/01/13 10:55:29;;;;;;;0.00;0.00;;;5.50;99.90;;;;;;5022455;28;20080;-65
2022/01/13 10:57:55;;;;;;;0.90;0.90;;;5.50;99.90;;;;;;5021873;28;20584;-63
2022/01/13 11:00:23;;;;;;;0.55;0.55;;;5.50;99.90;;;;;;5021317;28;20120;-63
2022/01/13 11:03:04;;;;;;;0.00;0.00;;;5.50;99.90;;;;;;5021941;28;20128;-63
2022/01/13 11:05:33;;;;;;;0.00;0.00;;;5.40;99.90;;;;;;5022043;28;20133;-63
2022/01/13 11:08:05;;;;;;;0.00;0.00;;;5.50;99.90;;;;;;5003424;28;20136;-64
2022/01/13 11:10:31;;;;;;;1.33;1.25;;;5.50;99.90;;;;;;5004584;28;20076;-64
2022/01/13 11:13:00;;;;;;;0.00;0.00;;;5.50;99.90;;;;;;5021781;28;20041;-65
2022/01/13 11:15:28;;;;;;;0.20;0.20;;;5.50;99.90;;;;;;5003346;28;20129;-64
2022/01/13 11:17:55;;;;;;;0.00;0.00;;;5.50;99.90;;;;;;5022106;28;20077;-64
2022/01/13 11:20:22;;;;;;;0.00;0.00;;;5.50;99.90;;;;;;5021708;28;20049;-65
2022/01/13 11:22:50;;;;;;;0.00;0.00;;;5.50;99.90;;;;;;5020700;28;20049;-65
2022/01/13 11:25:19;;;;;;;0.10;0.10;;;5.60;99.90;;;;;;5003457;28;20053;-65
2022/01/13 11:27:46;;;;;;;0.00;0.00;;;5.50;99.90;;;;;;5023878;28;20041;-65
2022/01/13 11:30:21;;;;;;;0.00;0.00;;;5.50;99.90;;;;;;5039784;28;20380;-64
2022/01/13 11:32:47;;;;;;;0.00;0.00;;;5.50;99.90;;;;;;5043602;28;20186;-65
2022/01/13 11:35:19;;;;;;;0.70;0.70;;;5.60;99.90;;;;;;5040932;28;20037;-65
2022/01/13 11:37:45;;;;;;;0.00;0.00;;;5.80;99.90;;;;;;5022600;28;20082;-65
2022/01/13 11:40:26;;;;;;;0.47;0.15;;;5.50;99.90;;;;;;5022178;28;20144;-65
2022/01/13 11:42:53;;;;;;;0.20;0.20;;;5.50;99.90;;;;;;5041008;28;20049;-65
2022/01/13 11:45:20;;;;;;;0.00;0.00;;;5.50;99.90;;;;;;5041340;28;20080;-65
2022/01/13 11:47:47;;;;;;;0.03;0.03;;;5.60;99.90;;;;;;5040477;28;20140;-65
2022/01/13 11:50:21;;;;;;;0.00;0.00;;;5.60;99.90;;;;;;5023342;28;20079;-65
2022/01/13 11:52:52;;;;;;;0.82;0.68;;;5.60;99.90;;;;;;5040064;28;20100;-65
2022/01/13 11:55:34;;;;;;;0.00;0.00;;;5.60;99.90;;;;;;5039869;28;20049;-65
2022/01/13 11:58:14;;;;;;;0.00;0.00;;;5.60;99.90;;;;;;5006019;28;20052;-65
2022/01/13 12:00:42;;;;;;;0.00;0.00;;;5.60;99.90;;;;;;5022483;28;20049;-65
2022/01/13 12:03:24;;;;;;;0.08;0.08;;;5.60;99.90;;;;;;5040030;28;20431;-65
2022/01/13 12:05:50;;;;;;;0.00;0.00;;;5.70;99.90;;;;;;5040388;28;20131;-65
2022/01/13 12:08:42;;;;;;;0.03;0.03;;;5.80;99.90;;;;;;5039219;28;20049;-65
2022/01/13 12:11:11;;;;;;;0.00;0.00;;;5.70;99.90;;;;;;5006665;28;20110;-65
2022/01/13 12:13:44;;;;;;;0.00;0.00;;;5.80;99.90;;;;;;5022143;28;20120;-65
2022/01/13 12:16:11;;;;;;;0.00;0.00;;;5.80;99.90;;;;;;5040433;28;20060;-65
2022/01/13 12:18:45;;;;;;;0.00;0.00;;;5.70;99.90;;;;;;5023149;28;20111;-66
2022/01/13 12:21:29;;;;;;;0.00;0.00;;;5.80;99.90;;;;;;5021953;28;20044;-58
2022/01/13 12:23:56;;;;;;;0.00;0.00;;;5.90;99.90;;;;;;5039740;28;20045;-58
2022/01/13 12:26:33;;;;;;;0.00;0.00;;;6.00;99.90;;;;;;5041091;28;20045;-58
2022/01/13 12:29:18;;;;;;;0.00;0.00;;;6.00;99.90;;;;;;5034804;28;20592;-58
2022/01/13 12:32:05;;;;;;;0.00;0.00;;;5.90;99.90;;;;;;5019483;28;20568;-58
2022/01/13 12:34:31;;;;;;;0.00;0.00;;;6.00;99.90;;;;;;5020810;28;20045;-58
2022/01/13 12:36:59;;;;;;;0.00;0.00;;;6.00;99.90;;;;;;5002878;28;20045;-58
2022/01/13 12:39:26;;;;;;;0.00;0.00;;;5.90;99.90;;;;;;5019925;28;20037;-58
2022/01/13 12:41:59;;;;;;;0.10;0.10;;;6.00;99.90;;;;;;5003978;28;20106;-59
2022/01/13 12:47:11;;;;;;;;;;;6.00;99.90;;;;;;5037245;28;20044;-60
2022/01/13 12:49:37;;;;;;;0.00;0.00;;;6.10;99.90;;;;;;5040100;28;20334;-60
2022/01/13 12:52:04;;;;;;;0.10;0.10;;;6.10;99.90;;;;;;5016872;28;20049;-60
2022/01/13 12:54:30;;;;;;;0.00;0.00;;;6.10;99.90;;;;;;5020668;28;20045;-60
2022/01/13 12:56:55;;;;;;;0.00;0.00;;;6.10;99.90;;;;;;5038229;28;20407;-60
2022/01/13 12:59:22;;;;;;;0.00;0.00;;;6.10;99.90;;;;;;5039163;28;20033;-59
2022/01/13 13:01:48;;;;;;;0.00;0.00;;;6.00;99.90;;;;;;5039306;28;20380;-58
2022/01/13 13:04:14;;;;;;;0.00;0.00;;;6.10;99.90;;;;;;5039006;28;20059;-57
2022/01/13 13:06:43;;;;;;;0.35;0.35;;;6.10;99.90;;;;;;5020284;28;20047;-58
2022/01/13 13:09:15;;;;;;;0.00;0.00;;;6.10;99.90;;;;;;5038176;28;20059;-57
2022/01/13 13:11:46;;;;;;;0.00;0.00;;;6.20;99.90;;;;;;5039074;28;20400;-60
2022/01/13 13:14:18;;;;;;;0.70;0.70;;;6.20;99.90;;;;;;5038029;28;20053;-60
2022/01/13 13:16:46;;;;;;;0.85;0.40;;;6.20;99.90;;;;;;5028248;28;20498;-59
2022/01/13 13:19:12;;;;;;;2.00;1.45;;;6.20;99.90;;;;;;5040112;28;20071;-59
2022/01/13 13:21:38;;;;;;;0.10;0.10;;;6.20;99.90;;;;;;5039189;28;20049;-60
2022/01/13 13:24:04;;;;;;;0.00;0.00;;;6.30;99.90;;;;;;5021783;28;20044;-60
2022/01/13 13:26:30;;;;;;;0.05;0.05;;;6.30;99.90;;;;;;5039427;28;20045;-57